sensor_id;sensor_type;location;lat;lon;timestamp;P1;durP1;ratioP1;P2;durP2;ratioP2
71176;SDS011;58877;51.992;4.504;2024-03-23T00:56:13;5.59;;;4.25;;
71176;SDS011;58877;51.992;4.504;2024-03-23T00:58:38;5.76;;;4.48;;
71176;SDS011;58877;51.992;4.504;2024-03-23T01:01:10;4.72;;;3.80;;
71176;SDS011;58877;51.992;4.504;2024-03-23T01:03:36;6.07;;;4.77;;
71176;SDS011;58877;51.992;4.504;2024-03-23T01:06:02;5.75;;;4.50;;
71176;SDS011;58877;51.992;4.504;2024-03-23T01:08:29;6.03;;;4.71;;
71176;SDS011;58877;51.992;4.504;2024-03-23T01:13:24;5.66;;;4.54;;
71176;SDS011;58877;51.992;4.504;2024-03-23T01:15:50;5.23;;;4.17;;
71176;SDS011;58877;51.992;4.504;2024-03-23T01:18:17;5.86;;;4.63;;
71176;SDS011;58877;51.992;4.504;2024-03-23T01:20:43;5.07;;;4.04;;
71176;SDS011;58877;51.992;4.504;2024-03-23T01:23:10;5.19;;;3.96;;
71176;SDS011;58877;51.992;4.504;2024-03-23T01:25:36;5.37;;;4.06;;
71176;SDS011;58877;51.992;4.504;2024-03-23T01:28:01;5.70;;;4.26;;
71176;SDS011;58877;51.992;4.504;2024-03-23T01:30:27;5.72;;;4.10;;
71176;SDS011;58877;51.992;4.504;2024-03-23T01:32:55;5.75;;;3.99;;
71176;SDS011;58877;51.992;4.504;2024-03-23T01:35:21;6.90;;;4.63;;
71176;SDS011;58877;51.992;4.504;2024-03-23T01:37:47;7.14;;;4.73;;
71176;SDS011;58877;51.992;4.504;2024-03-23T01:40:13;5.79;;;3.78;;
71176;SDS011;58877;51.992;4.504;2024-03-23T01:42:39;7.36;;;4.72;;
71176;SDS011;58877;51.992;4.504;2024-03-23T01:45:07;7.47;;;4.74;;
71176;SDS011;58877;51.992;4.504;2024-03-23T01:47:36;7.20;;;4.51;;
71176;SDS011;58877;51.992;4.504;2024-03-23T01:50:05;7.21;;;4.54;;
71176;SDS011;58877;51.992;4.504;2024-03-23T01:52:32;6.15;;;3.92;;
71176;SDS011;58877;51.992;4.504;2024-03-23T01:54:58;6.36;;;4.06;;
71176;SDS011;58877;51.992;4.504;2024-03-23T01:57:24;5.71;;;3.64;;
71176;SDS011;58877;51.992;4.504;2024-03-23T01:59:50;6.21;;;3.86;;
71176;SDS011;58877;51.992;4.504;2024-03-23T02:02:16;5.84;;;3.64;;
71176;SDS011;58877;51.992;4.504;2024-03-23T02:04:51;6.80;;;4.20;;
71176;SDS011;58877;51.992;4.504;2024-03-23T02:07:21;6.25;;;3.95;;
71176;SDS011;58877;51.992;4.504;2024-03-23T02:09:49;5.93;;;3.77;;
71176;SDS011;58877;51.992;4.504;2024-03-23T02:19:13;6.11;;;3.91;;
71176;SDS011;58877;51.992;4.504;2024-03-23T02:21:42;6.49;;;4.08;;
71176;SDS011;58877;51.992;4.504;2024-03-23T02:24:14;7.17;;;4.46;;
71176;SDS011;58877;51.992;4.504;2024-03-23T02:26:46;6.90;;;4.31;;
71176;SDS011;58877;51.992;4.504;2024-03-23T02:29:17;7.48;;;4.69;;
71176;SDS011;58877;51.992;4.504;2024-03-23T02:31:46;6.00;;;3.78;;
71176;SDS011;58877;51.992;4.504;2024-03-23T02:34:15;6.86;;;4.28;;
71176;SDS011;58877;51.992;4.504;2024-03-23T02:36:41;6.32;;;3.93;;
71176;SDS011;58877;51.992;4.504;2024-03-23T02:39:06;7.01;;;4.30;;
71176;SDS011;58877;51.992;4.504;2024-03-23T02:41:41;7.63;;;4.60;;
71176;SDS011;58877;51.992;4.504;2024-03-23T02:44:07;6.95;;;4.27;;
71176;SDS011;58877;51.992;4.504;2024-03-23T02:46:37;6.59;;;4.04;;
71176;SDS011;58877;51.992;4.504;2024-03-23T02:49:03;6.73;;;4.15;;
71176;SDS011;58877;51.992;4.504;2024-03-23T02:51:30;5.50;;;3.38;;
71176;SDS011;58877;51.992;4.504;2024-03-23T02:53:58;6.83;;;4.21;;
71176;SDS011;58877;51.992;4.504;2024-03-23T02:56:24;6.61;;;4.14;;
71176;SDS011;58877;51.992;4.504;2024-03-23T02:59:07;6.79;;;4.26;;
71176;SDS011;58877;51.992;4.504;2024-03-23T03:01:33;5.81;;;3.65;;
71176;SDS011;58877;51.992;4.504;2024-03-23T03:04:01;5.70;;;3.66;;
71176;SDS011;58877;51.992;4.504;2024-03-23T03:06:27;7.19;;;4.54;;
71176;SDS011;58877;51.992;4.504;2024-03-23T03:08:56;5.55;;;3.49;;
71176;SDS011;58877;51.992;4.504;2024-03-23T03:11:21;5.75;;;3.63;;
71176;SDS011;58877;51.992;4.504;2024-03-23T03:13:47;6.04;;;3.77;;
71176;SDS011;58877;51.992;4.504;2024-03-23T03:16:15;5.39;;;3.38;;
71176;SDS011;58877;51.992;4.504;2024-03-23T03:18:41;5.36;;;3.38;;
71176;SDS011;58877;51.992;4.504;2024-03-23T03:21:07;5.08;;;3.21;;
71176;SDS011;58877;51.992;4.504;2024-03-23T03:23:38;5.62;;;3.53;;
71176;SDS011;58877;51.992;4.504;2024-03-23T03:26:05;5.76;;;3.62;;
71176;SDS011;58877;51.992;4.504;2024-03-23T03:28:34;5.66;;;3.54;;
71176;SDS011;58877;51.992;4.504;2024-03-23T03:31:00;6.13;;;3.80;;
71176;SDS011;58877;51.992;4.504;2024-03-23T03:33:26;6.35;;;3.93;;
71176;SDS011;58877;51.992;4.504;2024-03-23T03:35:56;5.29;;;3.24;;
71176;SDS011;58877;51.992;4.504;2024-03-23T03:38:21;5.89;;;3.56;;
71176;SDS011;58877;51.992;4.504;2024-03-23T03:40:47;5.54;;;3.39;;
71176;SDS011;58877;51.992;4.504;2024-03-23T03:43:12;6.00;;;3.71;;
71176;SDS011;58877;51.992;4.504;2024-03-23T03:45:38;5.48;;;3.37;;
71176;SDS011;58877;51.992;4.504;2024-03-23T03:48:04;4.93;;;3.11;;
71176;SDS011;58877;51.992;4.504;2024-03-23T03:50:29;4.85;;;3.09;;
71176;SDS011;58877;51.992;4.504;2024-03-23T03:52:55;5.51;;;3.58;;
71176;SDS011;58877;51.992;4.504;2024-03-23T03:55:21;4.62;;;3.05;;
71176;SDS011;58877;51.992;4.504;2024-03-23T03:57:47;4.37;;;2.84;;
71176;SDS011;58877;51.992;4.504;2024-03-23T04:00:13;4.90;;;3.17;;
71176;SDS011;58877;51.992;4.504;2024-03-23T04:02:48;4.78;;;3.04;;
71176;SDS011;58877;51.992;4.504;2024-03-23T04:05:14;4.11;;;2.62;;
71176;SDS011;58877;51.992;4.504;2024-03-23T04:07:44;5.30;;;3.38;;
71176;SDS011;58877;51.992;4.504;2024-03-23T04:10:10;5.16;;;3.28;;
71176;SDS011;58877;51.992;4.504;2024-03-23T04:12:41;4.83;;;3.05;;
71176;SDS011;58877;51.992;4.504;2024-03-23T04:15:11;5.66;;;3.52;;
71176;SDS011;58877;51.992;4.504;2024-03-23T04:17:37;5.03;;;3.11;;
71176;SDS011;58877;51.992;4.504;2024-03-23T04:20:04;4.48;;;2.80;;
71176;SDS011;58877;51.992;4.504;2024-03-23T04:22:36;5.33;;;3.34;;
71176;SDS011;58877;51.992;4.504;2024-03-23T04:25:06;5.64;;;3.50;;
71176;SDS011;58877;51.992;4.504;2024-03-23T04:27:32;5.75;;;3.58;;
71176;SDS011;58877;51.992;4.504;2024-03-23T04:30:01;7.89;;;4.80;;
71176;SDS011;58877;51.992;4.504;2024-03-23T04:32:29;6.91;;;4.20;;
71176;SDS011;58877;51.992;4.504;2024-03-23T04:34:56;6.22;;;3.77;;
71176;SDS011;58877;51.992;4.504;2024-03-23T04:37:21;5.50;;;3.38;;
71176;SDS011;58877;51.992;4.504;2024-03-23T04:39:47;4.83;;;3.07;;
71176;SDS011;58877;51.992;4.504;2024-03-23T04:42:17;5.70;;;3.67;;
71176;SDS011;58877;51.992;4.504;2024-03-23T04:44:43;5.29;;;3.39;;
71176;SDS011;58877;51.992;4.504;2024-03-23T04:47:10;5.68;;;3.68;;
71176;SDS011;58877;51.992;4.504;2024-03-23T04:49:36;5.81;;;3.74;;
71176;SDS011;58877;51.992;4.504;2024-03-23T04:52:04;6.96;;;4.52;;
71176;SDS011;58877;51.992;4.504;2024-03-23T04:54:30;5.84;;;3.77;;
71176;SDS011;58877;51.992;4.504;2024-03-23T04:56:58;5.53;;;3.53;;
71176;SDS011;58877;51.992;4.504;2024-03-23T04:59:25;5.86;;;3.88;;
71176;SDS011;58877;51.992;4.504;2024-03-23T05:01:54;5.52;;;3.67;;
71176;SDS011;58877;51.992;4.504;2024-03-23T05:04:19;5.97;;;3.89;;
71176;SDS011;58877;51.992;4.504;2024-03-23T05:06:48;5.32;;;3.53;;
71176;SDS011;58877;51.992;4.504;2024-03-23T05:09:14;5.55;;;3.70;;
71176;SDS011;58877;51.992;4.504;2024-03-23T05:11:40;5.59;;;3.70;;
71176;SDS011;58877;51.992;4.504;2024-03-23T05:14:07;7.24;;;4.66;;
71176;SDS011;58877;51.992;4.504;2024-03-23T05:16:32;6.60;;;4.24;;
71176;SDS011;58877;51.992;4.504;2024-03-23T05:18:58;6.64;;;4.28;;
71176;SDS011;58877;51.992;4.504;2024-03-23T05:21:24;5.78;;;3.78;;
71176;SDS011;58877;51.992;4.504;2024-03-23T05:23:50;6.71;;;4.36;;
71176;SDS011;58877;51.992;4.504;2024-03-23T05:26:25;5.89;;;3.97;;
71176;SDS011;58877;51.992;4.504;2024-03-23T05:28:54;5.98;;;4.13;;
71176;SDS011;58877;51.992;4.504;2024-03-23T05:31:28;5.87;;;4.11;;
71176;SDS011;58877;51.992;4.504;2024-03-23T05:33:55;5.48;;;3.90;;
71176;SDS011;58877;51.992;4.504;2024-03-23T05:36:27;4.81;;;3.56;;
71176;SDS011;58877;51.992;4.504;2024-03-23T05:38:53;5.08;;;3.73;;
71176;SDS011;58877;51.992;4.504;2024-03-23T05:41:19;5.30;;;3.83;;
71176;SDS011;58877;51.992;4.504;2024-03-23T05:43:49;4.83;;;3.52;;
71176;SDS011;58877;51.992;4.504;2024-03-23T05:46:23;4.92;;;3.52;;
71176;SDS011;58877;51.992;4.504;2024-03-23T05:48:50;4.89;;;3.55;;
71176;SDS011;58877;51.992;4.504;2024-03-23T05:51:18;5.46;;;3.94;;
71176;SDS011;58877;51.992;4.504;2024-03-23T05:53:44;5.64;;;3.95;;
71176;SDS011;58877;51.992;4.504;2024-03-23T05:56:13;5.06;;;3.60;;
71176;SDS011;58877;51.992;4.504;2024-03-23T05:58:39;4.48;;;3.32;;
71176;SDS011;58877;51.992;4.504;2024-03-23T06:01:15;5.20;;;3.76;;
71176;SDS011;58877;51.992;4.504;2024-03-23T06:03:41;4.91;;;3.49;;
71176;SDS011;58877;51.992;4.504;2024-03-23T06:06:11;4.99;;;3.55;;
71176;SDS011;58877;51.992;4.504;2024-03-23T06:08:38;4.58;;;3.24;;
71176;SDS011;58877;51.992;4.504;2024-03-23T06:11:07;6.02;;;4.12;;
71176;SDS011;58877;51.992;4.504;2024-03-23T06:13:33;5.60;;;3.80;;
71176;SDS011;58877;51.992;4.504;2024-03-23T06:16:00;4.66;;;3.19;;
71176;SDS011;58877;51.992;4.504;2024-03-23T06:18:26;5.79;;;3.91;;
71176;SDS011;58877;51.992;4.504;2024-03-23T06:20:53;6.57;;;4.37;;
71176;SDS011;58877;51.992;4.504;2024-03-23T06:23:23;5.88;;;3.93;;
71176;SDS011;58877;51.992;4.504;2024-03-23T06:25:49;4.99;;;3.42;;
71176;SDS011;58877;51.992;4.504;2024-03-23T06:28:24;5.70;;;3.95;;
71176;SDS011;58877;51.992;4.504;2024-03-23T06:31:03;4.67;;;3.27;;
71176;SDS011;58877;51.992;4.504;2024-03-23T06:33:35;4.63;;;3.23;;
71176;SDS011;58877;51.992;4.504;2024-03-23T06:36:09;4.96;;;3.46;;
71176;SDS011;58877;51.992;4.504;2024-03-23T06:38:41;5.25;;;3.69;;
71176;SDS011;58877;51.992;4.504;2024-03-23T06:41:10;5.53;;;3.86;;
71176;SDS011;58877;51.992;4.504;2024-03-23T06:43:36;4.91;;;3.36;;
71176;SDS011;58877;51.992;4.504;2024-03-23T06:46:03;4.99;;;3.52;;
71176;SDS011;58877;51.992;4.504;2024-03-23T06:48:33;4.29;;;3.00;;
71176;SDS011;58877;51.992;4.504;2024-03-23T06:51:06;4.88;;;3.32;;
71176;SDS011;58877;51.992;4.504;2024-03-23T06:53:32;5.38;;;3.65;;
71176;SDS011;58877;51.992;4.504;2024-03-23T06:55:58;4.60;;;3.08;;
71176;SDS011;58877;51.992;4.504;2024-03-23T06:58:24;5.66;;;3.69;;
71176;SDS011;58877;51.992;4.504;2024-03-23T07:00:50;5.81;;;3.78;;
71176;SDS011;58877;51.992;4.504;2024-03-23T07:03:20;6.17;;;4.06;;
71176;SDS011;58877;51.992;4.504;2024-03-23T07:05:47;4.71;;;3.13;;
71176;SDS011;58877;51.992;4.504;2024-03-23T07:08:13;5.50;;;3.60;;
71176;SDS011;58877;51.992;4.504;2024-03-23T07:10:44;6.54;;;4.32;;
71176;SDS011;58877;51.992;4.504;2024-03-23T07:13:10;6.57;;;4.30;;
71176;SDS011;58877;51.992;4.504;2024-03-23T07:15:38;6.10;;;3.97;;
71176;SDS011;58877;51.992;4.504;2024-03-23T07:18:04;6.34;;;4.08;;
71176;SDS011;58877;51.992;4.504;2024-03-23T07:20:31;5.80;;;3.76;;
71176;SDS011;58877;51.992;4.504;2024-03-23T07:23:00;6.07;;;3.95;;
71176;SDS011;58877;51.992;4.504;2024-03-23T07:25:26;5.08;;;3.39;;
71176;SDS011;58877;51.992;4.504;2024-03-23T07:27:54;6.48;;;4.28;;
71176;SDS011;58877;51.992;4.504;2024-03-23T07:30:23;5.81;;;3.82;;
71176;SDS011;58877;51.992;4.504;2024-03-23T07:33:00;5.83;;;3.86;;
71176;SDS011;58877;51.992;4.504;2024-03-23T07:35:26;5.03;;;3.38;;
71176;SDS011;58877;51.992;4.504;2024-03-23T07:37:58;5.50;;;3.69;;
71176;SDS011;58877;51.992;4.504;2024-03-23T07:40:30;4.94;;;3.27;;
71176;SDS011;58877;51.992;4.504;2024-03-23T07:42:56;5.44;;;3.64;;
71176;SDS011;58877;51.992;4.504;2024-03-23T07:45:39;5.22;;;3.55;;
71176;SDS011;58877;51.992;4.504;2024-03-23T07:48:08;4.89;;;3.23;;
71176;SDS011;58877;51.992;4.504;2024-03-23T07:50:37;5.73;;;3.74;;
71176;SDS011;58877;51.992;4.504;2024-03-23T07:53:10;5.90;;;3.83;;
71176;SDS011;58877;51.992;4.504;2024-03-23T07:56:02;5.23;;;3.43;;
71176;SDS011;58877;51.992;4.504;2024-03-23T07:58:41;5.03;;;3.34;;
71176;SDS011;58877;51.992;4.504;2024-03-23T08:01:39;5.43;;;3.53;;
71176;SDS011;58877;51.992;4.504;2024-03-23T08:04:09;5.90;;;3.79;;
71176;SDS011;58877;51.992;4.504;2024-03-23T08:06:52;6.28;;;3.96;;
71176;SDS011;58877;51.992;4.504;2024-03-23T08:09:32;6.38;;;3.99;;
71176;SDS011;58877;51.992;4.504;2024-03-23T08:12:02;7.21;;;4.48;;
71176;SDS011;58877;51.992;4.504;2024-03-23T08:14:31;6.13;;;3.92;;
71176;SDS011;58877;51.992;4.504;2024-03-23T08:16:58;6.52;;;4.24;;
71176;SDS011;58877;51.992;4.504;2024-03-23T08:19:23;5.93;;;3.82;;
71176;SDS011;58877;51.992;4.504;2024-03-23T08:21:52;6.52;;;4.15;;
71176;SDS011;58877;51.992;4.504;2024-03-23T08:24:22;6.67;;;4.25;;
71176;SDS011;58877;51.992;4.504;2024-03-23T08:26:51;7.02;;;4.53;;
71176;SDS011;58877;51.992;4.504;2024-03-23T08:29:19;6.00;;;3.85;;
71176;SDS011;58877;51.992;4.504;2024-03-23T08:31:45;8.02;;;5.08;;
71176;SDS011;58877;51.992;4.504;2024-03-23T08:34:20;6.40;;;4.09;;
71176;SDS011;58877;51.992;4.504;2024-03-23T08:36:51;6.19;;;4.03;;
71176;SDS011;58877;51.992;4.504;2024-03-23T08:39:19;5.64;;;3.73;;
71176;SDS011;58877;51.992;4.504;2024-03-23T08:41:46;6.33;;;4.15;;
71176;SDS011;58877;51.992;4.504;2024-03-23T08:50:28;5.44;;;3.66;;
71176;SDS011;58877;51.992;4.504;2024-03-23T08:52:54;5.95;;;3.98;;
71176;SDS011;58877;51.992;4.504;2024-03-23T08:55:22;5.82;;;3.77;;
71176;SDS011;58877;51.992;4.504;2024-03-23T08:57:51;5.73;;;3.72;;
71176;SDS011;58877;51.992;4.504;2024-03-23T09:00:23;5.12;;;3.37;;
71176;SDS011;58877;51.992;4.504;2024-03-23T09:05:29;6.68;;;4.30;;
71176;SDS011;58877;51.992;4.504;2024-03-23T09:08:01;6.21;;;4.01;;
71176;SDS011;58877;51.992;4.504;2024-03-23T09:10:27;5.87;;;3.76;;
71176;SDS011;58877;51.992;4.504;2024-03-23T09:13:10;5.86;;;3.74;;
71176;SDS011;58877;51.992;4.504;2024-03-23T09:15:49;6.92;;;4.35;;
71176;SDS011;58877;51.992;4.504;2024-03-23T09:18:25;6.91;;;4.43;;
71176;SDS011;58877;51.992;4.504;2024-03-23T09:21:00;6.99;;;4.43;;
71176;SDS011;58877;51.992;4.504;2024-03-23T09:23:29;6.08;;;3.85;;
71176;SDS011;58877;51.992;4.504;2024-03-23T09:26:27;5.47;;;3.59;;
71176;SDS011;58877;51.992;4.504;2024-03-23T09:28:55;5.43;;;3.54;;
71176;SDS011;58877;51.992;4.504;2024-03-23T09:31:20;6.69;;;4.30;;
71176;SDS011;58877;51.992;4.504;2024-03-23T09:33:47;5.53;;;3.57;;
71176;SDS011;58877;51.992;4.504;2024-03-23T09:36:25;6.38;;;4.06;;
71176;SDS011;58877;51.992;4.504;2024-03-23T09:38:54;5.49;;;3.45;;
71176;SDS011;58877;51.992;4.504;2024-03-23T09:41:33;5.07;;;3.17;;
71176;SDS011;58877;51.992;4.504;2024-03-23T09:44:02;4.73;;;2.97;;
71176;SDS011;58877;51.992;4.504;2024-03-23T09:46:30;5.05;;;3.12;;
71176;SDS011;58877;51.992;4.504;2024-03-23T09:48:59;6.60;;;4.08;;
71176;SDS011;58877;51.992;4.504;2024-03-23T09:51:30;7.30;;;4.52;;
71176;SDS011;58877;51.992;4.504;2024-03-23T09:54:05;5.70;;;3.57;;
71176;SDS011;58877;51.992;4.504;2024-03-23T09:56:32;5.46;;;3.44;;
71176;SDS011;58877;51.992;4.504;2024-03-23T09:59:07;5.27;;;3.34;;
71176;SDS011;58877;51.992;4.504;2024-03-23T10:01:32;5.70;;;3.59;;
71176;SDS011;58877;51.992;4.504;2024-03-23T10:03:59;6.60;;;4.12;;
71176;SDS011;58877;51.992;4.504;2024-03-23T10:06:28;6.52;;;4.00;;
71176;SDS011;58877;51.992;4.504;2024-03-23T10:09:03;6.03;;;3.70;;
71176;SDS011;58877;51.992;4.504;2024-03-23T10:11:47;6.58;;;4.06;;
71176;SDS011;58877;51.992;4.504;2024-03-23T10:14:32;6.87;;;4.24;;
71176;SDS011;58877;51.992;4.504;2024-03-23T10:17:40;5.56;;;3.44;;
71176;SDS011;58877;51.992;4.504;2024-03-23T10:19:56;7.68;;;4.70;;
71176;SDS011;58877;51.992;4.504;2024-03-23T10:22:36;5.99;;;3.66;;
71176;SDS011;58877;51.992;4.504;2024-03-23T10:25:17;7.31;;;4.42;;
71176;SDS011;58877;51.992;4.504;2024-03-23T10:27:58;6.95;;;4.25;;
71176;SDS011;58877;51.992;4.504;2024-03-23T10:30:29;6.53;;;4.03;;
71176;SDS011;58877;51.992;4.504;2024-03-23T10:33:07;5.96;;;3.66;;
71176;SDS011;58877;51.992;4.504;2024-03-23T10:38:47;6.02;;;3.77;;
71176;SDS011;58877;51.992;4.504;2024-03-23T10:41:19;6.21;;;3.83;;
71176;SDS011;58877;51.992;4.504;2024-03-23T10:44:00;6.07;;;3.70;;
71176;SDS011;58877;51.992;4.504;2024-03-23T10:46:33;5.63;;;3.45;;
71176;SDS011;58877;51.992;4.504;2024-03-23T10:49:02;6.12;;;3.74;;
71176;SDS011;58877;51.992;4.504;2024-03-23T10:51:52;5.94;;;3.59;;
71176;SDS011;58877;51.992;4.504;2024-03-23T10:54:26;6.49;;;3.90;;
71176;SDS011;58877;51.992;4.504;2024-03-23T10:59:30;7.59;;;4.67;;
71176;SDS011;58877;51.992;4.504;2024-03-23T11:02:07;6.02;;;3.69;;
71176;SDS011;58877;51.992;4.504;2024-03-23T11:04:45;6.35;;;3.99;;
71176;SDS011;58877;51.992;4.504;2024-03-23T11:10:35;7.45;;;4.64;;
71176;SDS011;58877;51.992;4.504;2024-03-23T11:13:21;5.35;;;3.40;;
71176;SDS011;58877;51.992;4.504;2024-03-23T11:15:49;6.60;;;4.22;;
71176;SDS011;58877;51.992;4.504;2024-03-23T11:18:24;5.80;;;3.68;;
71176;SDS011;58877;51.992;4.504;2024-03-23T11:20:49;5.34;;;3.34;;
71176;SDS011;58877;51.992;4.504;2024-03-23T11:23:28;5.50;;;3.41;;
71176;SDS011;58877;51.992;4.504;2024-03-23T11:25:54;5.97;;;3.68;;
71176;SDS011;58877;51.992;4.504;2024-03-23T11:28:21;5.92;;;3.70;;
71176;SDS011;58877;51.992;4.504;2024-03-23T11:31:00;5.50;;;3.51;;
71176;SDS011;58877;51.992;4.504;2024-03-23T11:33:29;5.76;;;3.74;;
71176;SDS011;58877;51.992;4.504;2024-03-23T11:35:55;4.97;;;3.19;;
71176;SDS011;58877;51.992;4.504;2024-03-23T11:38:21;4.71;;;3.05;;
71176;SDS011;58877;51.992;4.504;2024-03-23T11:40:50;4.24;;;2.81;;
71176;SDS011;58877;51.992;4.504;2024-03-23T11:43:25;4.49;;;3.01;;
71176;SDS011;58877;51.992;4.504;2024-03-23T11:49:01;4.74;;;3.08;;
71176;SDS011;58877;51.992;4.504;2024-03-23T11:52:09;5.03;;;3.17;;
71176;SDS011;58877;51.992;4.504;2024-03-23T12:01:21;6.72;;;4.05;;
71176;SDS011;58877;51.992;4.504;2024-03-23T12:04:12;6.13;;;3.69;;
71176;SDS011;58877;51.992;4.504;2024-03-23T12:09:48;5.29;;;3.19;;
71176;SDS011;58877;51.992;4.504;2024-03-23T12:12:31;5.25;;;3.22;;
71176;SDS011;58877;51.992;4.504;2024-03-23T12:15:03;6.61;;;4.04;;
71176;SDS011;58877;51.992;4.504;2024-03-23T12:17:40;6.04;;;3.72;;
71176;SDS011;58877;51.992;4.504;2024-03-23T12:20:08;6.10;;;3.73;;
71176;SDS011;58877;51.992;4.504;2024-03-23T12:22:35;5.62;;;3.48;;
71176;SDS011;58877;51.992;4.504;2024-03-23T12:25:01;5.69;;;3.56;;
71176;SDS011;58877;51.992;4.504;2024-03-23T12:27:29;5.01;;;3.15;;
71176;SDS011;58877;51.992;4.504;2024-03-23T12:30:07;4.98;;;3.13;;
71176;SDS011;58877;51.992;4.504;2024-03-23T12:32:34;5.17;;;3.18;;
71176;SDS011;58877;51.992;4.504;2024-03-23T12:35:01;5.57;;;3.39;;
71176;SDS011;58877;51.992;4.504;2024-03-23T12:37:27;3.62;;;2.20;;
71176;SDS011;58877;51.992;4.504;2024-03-23T12:39:53;4.45;;;2.74;;
71176;SDS011;58877;51.992;4.504;2024-03-23T12:42:32;4.62;;;2.81;;
71176;SDS011;58877;51.992;4.504;2024-03-23T12:44:57;4.80;;;2.92;;
71176;SDS011;58877;51.992;4.504;2024-03-23T12:47:23;6.29;;;3.83;;
71176;SDS011;58877;51.992;4.504;2024-03-23T12:49:55;5.90;;;3.62;;
71176;SDS011;58877;51.992;4.504;2024-03-23T12:52:21;4.94;;;3.08;;
71176;SDS011;58877;51.992;4.504;2024-03-23T12:54:49;5.53;;;3.42;;
71176;SDS011;58877;51.992;4.504;2024-03-23T12:57:16;5.52;;;3.44;;
71176;SDS011;58877;51.992;4.504;2024-03-23T12:59:41;4.81;;;3.02;;
71176;SDS011;58877;51.992;4.504;2024-03-23T13:02:07;3.43;;;2.19;;
71176;SDS011;58877;51.992;4.504;2024-03-23T13:04:36;4.20;;;2.69;;
71176;SDS011;58877;51.992;4.504;2024-03-23T13:07:05;4.38;;;2.79;;
71176;SDS011;58877;51.992;4.504;2024-03-23T13:09:31;4.88;;;3.07;;
71176;SDS011;58877;51.992;4.504;2024-03-23T13:11:57;5.45;;;3.39;;
71176;SDS011;58877;51.992;4.504;2024-03-23T13:14:23;5.00;;;3.10;;
71176;SDS011;58877;51.992;4.504;2024-03-23T13:16:49;5.92;;;3.67;;
71176;SDS011;58877;51.992;4.504;2024-03-23T13:19:14;5.73;;;3.49;;
71176;SDS011;58877;51.992;4.504;2024-03-23T13:21:46;6.35;;;3.86;;
71176;SDS011;58877;51.992;4.504;2024-03-23T13:27:06;5.08;;;3.21;;
71176;SDS011;58877;51.992;4.504;2024-03-23T13:29:36;4.04;;;2.61;;
71176;SDS011;58877;51.992;4.504;2024-03-23T13:32:15;4.77;;;3.07;;
71176;SDS011;58877;51.992;4.504;2024-03-23T13:34:45;4.82;;;3.08;;
71176;SDS011;58877;51.992;4.504;2024-03-23T13:37:19;5.56;;;3.53;;
71176;SDS011;58877;51.992;4.504;2024-03-23T13:39:51;6.11;;;3.85;;
71176;SDS011;58877;51.992;4.504;2024-03-23T13:42:20;5.93;;;3.68;;
71176;SDS011;58877;51.992;4.504;2024-03-23T13:44:46;5.46;;;3.33;;
71176;SDS011;58877;51.992;4.504;2024-03-23T13:47:15;5.78;;;3.53;;
71176;SDS011;58877;51.992;4.504;2024-03-23T13:49:41;5.11;;;3.09;;
71176;SDS011;58877;51.992;4.504;2024-03-23T13:52:17;3.67;;;2.23;;
71176;SDS011;58877;51.992;4.504;2024-03-23T13:58:41;3.86;;;2.37;;
71176;SDS011;58877;51.992;4.504;2024-03-23T14:01:16;2.28;;;1.43;;
71176;SDS011;58877;51.992;4.504;2024-03-23T14:03:50;2.38;;;1.50;;
71176;SDS011;58877;51.992;4.504;2024-03-23T14:06:19;1.84;;;1.17;;
71176;SDS011;58877;51.992;4.504;2024-03-23T14:08:49;1.80;;;1.16;;
71176;SDS011;58877;51.992;4.504;2024-03-23T14:11:49;1.90;;;1.24;;
71176;SDS011;58877;51.992;4.504;2024-03-23T14:14:28;2.66;;;1.76;;
71176;SDS011;58877;51.992;4.504;2024-03-23T14:17:07;2.71;;;1.77;;
71176;SDS011;58877;51.992;4.504;2024-03-23T14:19:33;3.34;;;2.16;;
71176;SDS011;58877;51.992;4.504;2024-03-23T14:21:58;3.72;;;2.41;;
71176;SDS011;58877;51.992;4.504;2024-03-23T14:24:24;3.55;;;2.28;;
71176;SDS011;58877;51.992;4.504;2024-03-23T14:26:50;3.78;;;2.43;;
71176;SDS011;58877;51.992;4.504;2024-03-23T14:29:16;3.46;;;2.22;;
71176;SDS011;58877;51.992;4.504;2024-03-23T14:31:43;3.62;;;2.31;;
71176;SDS011;58877;51.992;4.504;2024-03-23T14:34:09;3.72;;;2.36;;
71176;SDS011;58877;51.992;4.504;2024-03-23T14:36:41;4.89;;;3.17;;
71176;SDS011;58877;51.992;4.504;2024-03-23T14:39:07;3.49;;;2.35;;
71176;SDS011;58877;51.992;4.504;2024-03-23T14:41:32;3.69;;;2.50;;
71176;SDS011;58877;51.992;4.504;2024-03-23T14:44:02;3.77;;;2.51;;
71176;SDS011;58877;51.992;4.504;2024-03-23T14:46:28;4.19;;;2.75;;
71176;SDS011;58877;51.992;4.504;2024-03-23T14:48:53;4.26;;;2.77;;
71176;SDS011;58877;51.992;4.504;2024-03-23T14:51:20;3.88;;;2.53;;
71176;SDS011;58877;51.992;4.504;2024-03-23T14:53:47;3.59;;;2.34;;
71176;SDS011;58877;51.992;4.504;2024-03-23T14:56:13;3.48;;;2.30;;
71176;SDS011;58877;51.992;4.504;2024-03-23T14:58:41;3.55;;;2.34;;
71176;SDS011;58877;51.992;4.504;2024-03-23T15:01:08;2.97;;;1.94;;
71176;SDS011;58877;51.992;4.504;2024-03-23T15:03:35;2.60;;;1.69;;
71176;SDS011;58877;51.992;4.504;2024-03-23T15:06:04;4.17;;;2.71;;
71176;SDS011;58877;51.992;4.504;2024-03-23T15:08:30;4.17;;;2.69;;
71176;SDS011;58877;51.992;4.504;2024-03-23T15:10:59;3.28;;;2.11;;
71176;SDS011;58877;51.992;4.504;2024-03-23T15:13:33;3.24;;;2.13;;
71176;SDS011;58877;51.992;4.504;2024-03-23T15:16:02;4.76;;;3.06;;
71176;SDS011;58877;51.992;4.504;2024-03-23T15:18:31;4.22;;;2.67;;
71176;SDS011;58877;51.992;4.504;2024-03-23T15:21:06;3.60;;;2.31;;
71176;SDS011;58877;51.992;4.504;2024-03-23T15:27:10;4.02;;;2.58;;
71176;SDS011;58877;51.992;4.504;2024-03-23T15:29:36;3.35;;;2.14;;
71176;SDS011;58877;51.992;4.504;2024-03-23T15:32:07;3.25;;;2.05;;
71176;SDS011;58877;51.992;4.504;2024-03-23T15:34:33;3.18;;;1.99;;
71176;SDS011;58877;51.992;4.504;2024-03-23T15:36:59;2.81;;;1.77;;
71176;SDS011;58877;51.992;4.504;2024-03-23T15:39:25;3.07;;;1.95;;
71176;SDS011;58877;51.992;4.504;2024-03-23T15:41:51;3.25;;;2.09;;
71176;SDS011;58877;51.992;4.504;2024-03-23T15:44:17;2.44;;;1.59;;
71176;SDS011;58877;51.992;4.504;2024-03-23T15:46:45;2.28;;;1.51;;
71176;SDS011;58877;51.992;4.504;2024-03-23T15:49:11;2.52;;;1.68;;
71176;SDS011;58877;51.992;4.504;2024-03-23T15:51:37;2.41;;;1.63;;
71176;SDS011;58877;51.992;4.504;2024-03-23T15:57:02;3.48;;;2.36;;
71176;SDS011;58877;51.992;4.504;2024-03-23T15:59:28;3.82;;;2.59;;
71176;SDS011;58877;51.992;4.504;2024-03-23T16:01:57;3.01;;;2.02;;
71176;SDS011;58877;51.992;4.504;2024-03-23T16:04:23;3.09;;;2.04;;
71176;SDS011;58877;51.992;4.504;2024-03-23T16:06:49;3.36;;;2.22;;
71176;SDS011;58877;51.992;4.504;2024-03-23T16:09:15;3.15;;;2.06;;
71176;SDS011;58877;51.992;4.504;2024-03-23T16:11:44;3.06;;;2.01;;
71176;SDS011;58877;51.992;4.504;2024-03-23T16:14:33;3.24;;;2.10;;
71176;SDS011;58877;51.992;4.504;2024-03-23T16:16:59;2.36;;;1.55;;
71176;SDS011;58877;51.992;4.504;2024-03-23T16:19:24;2.38;;;1.55;;
71176;SDS011;58877;51.992;4.504;2024-03-23T16:21:50;3.46;;;2.25;;
71176;SDS011;58877;51.992;4.504;2024-03-23T16:24:16;3.23;;;2.08;;
71176;SDS011;58877;51.992;4.504;2024-03-23T16:26:42;2.54;;;1.67;;
71176;SDS011;58877;51.992;4.504;2024-03-23T16:29:32;2.73;;;1.77;;
71176;SDS011;58877;51.992;4.504;2024-03-23T16:32:00;3.04;;;1.94;;
71176;SDS011;58877;51.992;4.504;2024-03-23T16:34:26;3.54;;;2.22;;
71176;SDS011;58877;51.992;4.504;2024-03-23T16:36:52;3.29;;;2.08;;
71176;SDS011;58877;51.992;4.504;2024-03-23T16:39:27;3.67;;;2.31;;
71176;SDS011;58877;51.992;4.504;2024-03-23T16:41:53;4.30;;;2.73;;
71176;SDS011;58877;51.992;4.504;2024-03-23T16:44:19;3.95;;;2.50;;
71176;SDS011;58877;51.992;4.504;2024-03-23T16:46:49;3.46;;;2.21;;
71176;SDS011;58877;51.992;4.504;2024-03-23T16:49:15;4.79;;;3.01;;
71176;SDS011;58877;51.992;4.504;2024-03-23T16:51:41;3.83;;;2.42;;